Time;durP1;ratioP1;P1;durP2;ratioP2;P2;SDS_P1;SDS_P2;PMS_P1;PMS_P2;Temp;Humidity;BMP_temperature;BMP_pressure;BME280_temperature;BME280_humidity;BME280_pressure;Samples;Min_cycle;Max_cycle;Signal;HPM_P1;HPM_P2
2023/07/27 00:00:21;;;;;;;0.70;0.70;;;;;12.50;95916.00;;;;5072825;28;20187;-56
2023/07/27 00:02:49;;;;;;;0.90;0.90;;;;;12.50;95918.00;;;;5073311;28;20235;-55
2023/07/27 00:05:16;;;;;;;1.00;1.00;;;;;12.60;95917.00;;;;5072884;28;20228;-55
2023/07/27 00:07:43;;;;;;;0.80;0.80;;;;;12.50;95923.00;;;;5072743;28;20192;-55
2023/07/27 00:10:11;;;;;;;1.03;1.00;;;;;12.50;95914.00;;;;5073205;28;20191;-54
2023/07/27 00:12:38;;;;;;;0.70;0.70;;;;;12.50;95916.00;;;;5072928;28;20196;-55
2023/07/27 00:15:07;;;;;;;0.93;0.93;;;;;12.50;95918.00;;;;5072553;28;20811;-55
2023/07/27 00:17:36;;;;;;;0.60;0.60;;;;;12.40;95913.00;;;;5072570;28;20196;-54
2023/07/27 00:20:03;;;;;;;1.00;1.00;;;;;12.40;95905.00;;;;5072601;28;20192;-54
2023/07/27 00:22:31;;;;;;;0.93;0.93;;;;;12.30;95900.00;;;;5072609;28;20235;-55
2023/07/27 00:24:58;;;;;;;0.63;0.63;;;;;12.30;95902.00;;;;5072410;28;20226;-55
2023/07/27 00:27:26;;;;;;;1.00;1.00;;;;;12.30;95905.00;;;;5072587;28;20195;-54
2023/07/27 00:29:53;;;;;;;1.50;1.40;;;;;12.20;95899.00;;;;5072789;28;20198;-54
2023/07/27 00:32:20;;;;;;;0.70;0.70;;;;;12.20;95902.00;;;;5072487;28;20200;-54
2023/07/27 00:34:51;;;;;;;0.73;0.73;;;;;12.40;95901.00;;;;5072699;28;20531;-55
2023/07/27 00:37:19;;;;;;;1.33;1.23;;;;;12.40;95882.00;;;;5072764;28;20180;-56
2023/07/27 00:39:47;;;;;;;0.67;0.67;;;;;12.40;95888.00;;;;5072564;28;20195;-55
2023/07/27 00:42:14;;;;;;;0.73;0.73;;;;;12.40;95888.00;;;;5072745;28;20673;-54
2023/07/27 00:44:41;;;;;;;2.13;1.03;;;;;12.30;95880.00;;;;5072273;28;20218;-55
2023/07/27 00:47:09;;;;;;;0.67;0.67;;;;;12.20;95879.00;;;;5072607;28;20317;-55
2023/07/27 00:49:37;;;;;;;0.67;0.67;;;;;12.20;95880.00;;;;5072374;28;20195;-55
2023/07/27 00:52:07;;;;;;;5.00;1.33;;;;;12.20;95869.00;;;;5072323;28;20187;-55
2023/07/27 00:54:35;;;;;;;1.10;1.10;;;;;12.20;95864.00;;;;5072359;28;20698;-55
2023/07/27 00:57:03;;;;;;;0.50;0.50;;;;;12.20;95875.00;;;;5075213;28;20191;-54
2023/07/27 00:59:31;;;;;;;0.83;0.83;;;;;12.20;95874.00;;;;5076140;28;20225;-55
2023/07/27 01:01:58;;;;;;;1.13;1.07;;;;;12.10;95871.00;;;;5057776;28;20191;-56
2023/07/27 01:04:26;;;;;;;0.70;0.70;;;;;12.00;95870.00;;;;5075784;28;20199;-55
2023/07/27 01:06:53;;;;;;;0.70;0.70;;;;;12.00;95868.00;;;;5075746;28;20195;-54
2023/07/27 01:09:22;;;;;;;0.97;0.90;;;;;11.90;95862.00;;;;5076196;28;20275;-54
2023/07/27 01:11:53;;;;;;;0.50;0.50;;;;;11.90;95857.00;;;;5075580;28;20192;-55
2023/07/27 01:14:29;;;;;;;0.83;0.83;;;;;12.00;95861.00;;;;5075477;28;20550;-55
2023/07/27 01:17:04;;;;;;;0.60;0.60;;;;;12.10;95857.00;;;;5075617;28;20214;-55
2023/07/27 01:19:53;;;;;;;0.70;0.70;;;;;11.90;95846.00;;;;5076061;28;20183;-54
2023/07/27 01:22:41;;;;;;;0.93;0.93;;;;;11.80;95850.00;;;;5075660;28;20264;-55
2023/07/27 01:25:32;;;;;;;0.80;0.80;;;;;11.90;95857.00;;;;5075525;28;20222;-54
2023/07/27 01:28:11;;;;;;;0.67;0.67;;;;;11.90;95849.00;;;;5075893;28;20190;-55
2023/07/27 01:30:51;;;;;;;1.07;1.07;;;;;12.00;95842.00;;;;5075823;28;20186;-55
2023/07/27 01:33:25;;;;;;;0.90;0.90;;;;;12.00;95846.00;;;;5075319;28;20188;-55
2023/07/27 01:36:02;;;;;;;0.90;0.90;;;;;11.90;95846.00;;;;5057266;28;20694;-56
2023/07/27 01:38:31;;;;;;;1.07;1.07;;;;;11.90;95834.00;;;;5075477;28;20175;-55
2023/07/27 01:40:59;;;;;;;1.00;1.00;;;;;12.10;95833.00;;;;5075057;28;20192;-54
2023/07/27 01:43:29;;;;;;;0.87;0.87;;;;;12.00;95826.00;;;;5075035;28;20188;-55
2023/07/27 01:45:59;;;;;;;0.73;0.73;;;;;12.00;95825.00;;;;5075433;28;20686;-55
2023/07/27 01:48:27;;;;;;;0.93;0.93;;;;;12.00;95820.00;;;;5074982;28;20199;-54
2023/07/27 01:50:56;;;;;;;0.70;0.70;;;;;12.10;95819.00;;;;5074924;28;20192;-56
2023/07/27 01:53:27;;;;;;;0.97;0.97;;;;;11.90;95815.00;;;;5074862;28;20195;-55
2023/07/27 01:55:55;;;;;;;0.77;0.77;;;;;12.00;95815.00;;;;5074718;28;20226;-55
2023/07/27 01:58:26;;;;;;;1.07;0.80;;;;;12.00;95814.00;;;;5074809;28;20191;-55
2023/07/27 02:00:56;;;;;;;0.87;0.87;;;;;12.00;95805.00;;;;5075035;28;20230;-55
2023/07/27 02:03:25;;;;;;;0.70;0.70;;;;;12.00;95806.00;;;;5074691;28;20195;-56
2023/07/27 02:05:52;;;;;;;0.80;0.80;;;;;12.00;95811.00;;;;5074483;28;20223;-56
2023/07/27 02:08:20;;;;;;;0.83;0.83;;;;;12.10;95801.00;;;;5074547;28;20195;-54
2023/07/27 02:10:52;;;;;;;0.73;0.73;;;;;12.00;95799.00;;;;5074455;28;20192;-54
2023/07/27 02:13:25;;;;;;;1.20;0.90;;;;;12.00;95804.00;;;;5074891;28;20188;-54
2023/07/27 02:16:03;;;;;;;0.50;0.50;;;;;11.90;95801.00;;;;5074672;28;20561;-54
2023/07/27 02:18:33;;;;;;;0.70;0.70;;;;;11.80;95793.00;;;;5074972;28;20184;-54
2023/07/27 02:21:03;;;;;;;0.60;0.60;;;;;11.80;95793.00;;;;5074388;28;20179;-55
2023/07/27 02:23:31;;;;;;;0.83;0.80;;;;;11.90;95796.00;;;;5056700;28;20199;-56
2023/07/27 02:25:59;;;;;;;0.97;0.97;;;;;12.00;95795.00;;;;5074125;28;20292;-55
2023/07/27 02:28:28;;;;;;;1.07;1.07;;;;;12.10;95788.00;;;;5074101;28;20195;-55
2023/07/27 02:30:56;;;;;;;0.80;0.80;;;;;12.00;95783.00;;;;5074545;28;20274;-55
2023/07/27 02:33:24;;;;;;;0.90;0.90;;;;;12.10;95777.00;;;;5074063;28;20192;-55
2023/07/27 02:35:53;;;;;;;0.90;0.80;;;;;12.00;95775.00;;;;5074254;28;20215;-55
2023/07/27 02:38:20;;;;;;;0.90;0.90;;;;;12.00;95774.00;;;;5074194;28;20214;-55
2023/07/27 02:40:47;;;;;;;1.00;1.00;;;;;12.00;95768.00;;;;5074232;28;20596;-55
2023/07/27 02:43:15;;;;;;;0.70;0.70;;;;;11.90;95768.00;;;;5073915;28;20290;-55
2023/07/27 02:45:42;;;;;;;0.90;0.90;;;;;11.90;95758.00;;;;5074118;28;20290;-55
2023/07/27 02:48:10;;;;;;;0.60;0.60;;;;;12.00;95762.00;;;;5073811;28;20200;-55
2023/07/27 02:50:37;;;;;;;0.90;0.90;;;;;12.00;95746.00;;;;5073978;28;20670;-55
2023/07/27 02:53:06;;;;;;;0.60;0.60;;;;;12.00;95747.00;;;;5074254;28;20317;-55
2023/07/27 02:55:33;;;;;;;1.03;1.03;;;;;12.00;95769.00;;;;5073435;28;20720;-55
2023/07/27 02:58:01;;;;;;;0.73;0.73;;;;;12.20;95763.00;;;;5073565;28;20204;-56
2023/07/27 03:00:28;;;;;;;0.77;0.77;;;;;12.10;95773.00;;;;5074040;28;20192;-54
2023/07/27 03:02:55;;;;;;;0.60;0.60;;;;;12.10;95766.00;;;;5073717;28;20198;-55
2023/07/27 03:05:23;;;;;;;1.07;1.07;;;;;12.00;95768.00;;;;5073278;28;20230;-55
2023/07/27 03:07:50;;;;;;;0.70;0.70;;;;;12.00;95764.00;;;;5073417;28;20191;-55
2023/07/27 03:10:19;;;;;;;0.93;0.93;;;;;12.00;95763.00;;;;5073350;28;20191;-55
2023/07/27 03:12:49;;;;;;;0.60;0.60;;;;;12.10;95757.00;;;;5073329;28;20195;-55
2023/07/27 03:15:16;;;;;;;1.07;1.07;;;;;12.10;95763.00;;;;5073359;28;20239;-55
2023/07/27 03:17:44;;;;;;;3.03;1.27;;;;;12.20;95762.00;;;;5073463;28;20191;-55
2023/07/27 03:20:12;;;;;;;0.60;0.60;;;;;12.00;95766.00;;;;5072985;28;20195;-55
2023/07/27 03:22:39;;;;;;;0.80;0.80;;;;;12.10;95763.00;;;;5073295;28;20195;-55
2023/07/27 03:25:07;;;;;;;0.60;0.60;;;;;12.10;95757.00;;;;5073097;28;20226;-55
2023/07/27 03:27:36;;;;;;;1.10;1.10;;;;;12.20;95760.00;;;;5055197;28;20637;-55
2023/07/27 03:30:04;;;;;;;5.10;1.17;;;;;12.20;95743.00;;;;5073162;28;20199;-54
2023/07/27 03:32:31;;;;;;;0.70;0.70;;;;;12.30;95739.00;;;;5073458;28;20279;-55
2023/07/27 03:34:59;;;;;;;1.00;1.00;;;;;12.30;95731.00;;;;5073293;28;20290;-56
2023/07/27 03:37:26;;;;;;;0.60;0.60;;;;;12.10;95738.00;;;;5073031;28;20194;-55
2023/07/27 03:39:54;;;;;;;0.70;0.70;;;;;12.10;95726.00;;;;5072988;28;20195;-56
2023/07/27 03:42:21;;;;;;;1.07;1.07;;;;;12.10;95727.00;;;;5073032;28;20646;-56
2023/07/27 03:44:50;;;;;;;0.93;0.93;;;;;12.00;95725.00;;;;5072882;28;20223;-56
2023/07/27 03:47:17;;;;;;;0.80;0.80;;;;;12.00;95727.00;;;;5073088;28;20223;-56
2023/07/27 03:49:44;;;;;;;0.73;0.73;;;;;11.90;95722.00;;;;5072954;28;20195;-56
2023/07/27 03:52:12;;;;;;;1.00;1.00;;;;;11.90;95714.00;;;;5073384;28;20195;-56
2023/07/27 03:54:39;;;;;;;0.77;0.77;;;;;11.80;95715.00;;;;5072958;28;20219;-56
2023/07/27 03:57:07;;;;;;;1.00;1.00;;;;;11.90;95717.00;;;;5072851;28;20195;-56
2023/07/27 03:59:34;;;;;;;0.50;0.50;;;;;11.80;95714.00;;;;5073075;28;20203;-56
2023/07/27 04:02:03;;;;;;;0.90;0.90;;;;;11.70;95722.00;;;;5054821;28;20547;-56
2023/07/27 04:04:31;;;;;;;0.80;0.80;;;;;11.70;95719.00;;;;5072903;28;20211;-54
2023/07/27 04:06:58;;;;;;;0.83;0.83;;;;;11.80;95708.00;;;;5072629;28;20218;-53
2023/07/27 04:09:26;;;;;;;1.03;1.03;;;;;11.80;95707.00;;;;5072745;28;20192;-55
2023/07/27 04:11:54;;;;;;;0.73;0.73;;;;;11.90;95716.00;;;;5072687;28;20187;-54
2023/07/27 04:14:21;;;;;;;0.80;0.80;;;;;11.90;95709.00;;;;5072536;28;20199;-54
2023/07/27 04:16:49;;;;;;;0.80;0.80;;;;;12.00;95708.00;;;;5072580;28;20256;-54
2023/07/27 04:19:17;;;;;;;1.43;1.17;;;;;12.20;95704.00;;;;5072618;28;20643;-55
2023/07/27 04:21:45;;;;;;;0.97;0.97;;;;;12.00;95701.00;;;;5072593;28;20227;-54
2023/07/27 04:24:12;;;;;;;1.07;1.07;;;;;12.20;95702.00;;;;5054608;28;20202;-55
2023/07/27 04:26:40;;;;;;;0.70;0.70;;;;;12.30;95703.00;;;;5072530;28;20226;-55
2023/07/27 04:29:07;;;;;;;0.90;0.90;;;;;12.30;95706.00;;;;5072537;28;20206;-55
2023/07/27 04:31:35;;;;;;;0.60;0.60;;;;;12.50;95707.00;;;;5074857;28;20199;-55
2023/07/27 04:34:02;;;;;;;0.63;0.63;;;;;12.50;95704.00;;;;5076328;28;20286;-55
2023/07/27 04:36:31;;;;;;;1.70;1.60;;;;;12.50;95696.00;;;;5076241;28;20208;-55
2023/07/27 04:38:58;;;;;;;1.43;1.33;;;;;12.50;95698.00;;;;5076167;28;20199;-55
2023/07/27 04:41:26;;;;;;;0.60;0.60;;;;;12.50;95696.00;;;;5076206;28;20257;-55
2023/07/27 04:43:54;;;;;;;0.90;0.90;;;;;12.60;95705.00;;;;5076134;28;20183;-55
2023/07/27 04:46:21;;;;;;;0.87;0.87;;;;;12.40;95714.00;;;;5076278;28;20227;-56
2023/07/27 04:48:48;;;;;;;0.83;0.83;;;;;12.30;95707.00;;;;5076051;28;20202;-55
2023/07/27 04:51:16;;;;;;;0.50;0.50;;;;;12.40;95709.00;;;;5076244;28;20242;-57
2023/07/27 04:53:45;;;;;;;0.83;0.83;;;;;12.40;95702.00;;;;5076124;28;20565;-54
2023/07/27 04:56:12;;;;;;;0.70;0.70;;;;;12.60;95715.00;;;;5075678;28;20219;-54
2023/07/27 04:58:40;;;;;;;0.90;0.90;;;;;12.60;95717.00;;;;5075720;28;20198;-55
2023/07/27 05:01:07;;;;;;;0.60;0.60;;;;;12.60;95718.00;;;;5075690;28;20203;-54
2023/07/27 05:03:34;;;;;;;0.77;0.77;;;;;12.60;95722.00;;;;5057787;28;20654;-55
2023/07/27 05:06:02;;;;;;;1.07;0.90;;;;;12.70;95710.00;;;;5075570;28;20223;-55
2023/07/27 05:08:30;;;;;;;0.83;0.83;;;;;12.70;95709.00;;;;5075833;28;20553;-55
2023/07/27 05:10:58;;;;;;;0.80;0.80;;;;;12.70;95714.00;;;;5075557;28;20199;-55
2023/07/27 05:13:26;;;;;;;0.77;0.77;;;;;12.70;95716.00;;;;5075745;28;20199;-55
2023/07/27 05:15:53;;;;;;;1.23;1.13;;;;;12.70;95708.00;;;;5075611;28;20211;-55
2023/07/27 05:18:21;;;;;;;0.77;0.77;;;;;12.70;95715.00;;;;5075688;28;20218;-55
2023/07/27 05:20:48;;;;;;;0.70;0.70;;;;;12.70;95717.00;;;;5075439;28;20670;-55
2023/07/27 05:23:16;;;;;;;0.80;0.80;;;;;12.60;95710.00;;;;5075393;28;20196;-55
2023/07/27 05:25:43;;;;;;;0.77;0.77;;;;;12.70;95696.00;;;;5075174;28;20216;-55
2023/07/27 05:28:12;;;;;;;1.47;1.27;;;;;12.90;95701.00;;;;5073321;28;20647;-55
2023/07/27 05:30:39;;;;;;;0.63;0.63;;;;;12.90;95696.00;;;;5066717;28;20210;-54
2023/07/27 05:33:07;;;;;;;0.80;0.80;;;;;13.00;95699.00;;;;5072817;28;20206;-55
2023/07/27 05:35:35;;;;;;;0.93;0.93;;;;;13.00;95700.00;;;;5073199;28;20222;-55
2023/07/27 05:38:02;;;;;;;0.67;0.67;;;;;12.80;95692.00;;;;5073120;28;20199;-55
2023/07/27 05:40:30;;;;;;;0.60;0.60;;;;;13.00;95691.00;;;;5073039;28;20196;-55
2023/07/27 05:42:57;;;;;;;1.40;1.27;;;;;13.00;95690.00;;;;5072690;28;20230;-55
2023/07/27 05:45:26;;;;;;;0.67;0.67;;;;;13.10;95692.00;;;;5072922;28;20702;-54
2023/07/27 05:47:53;;;;;;;0.80;0.80;;;;;13.10;95683.00;;;;5073251;28;20546;-55
2023/07/27 05:50:21;;;;;;;0.60;0.60;;;;;12.90;95697.00;;;;5053368;28;20202;-55
2023/07/27 05:52:49;;;;;;;0.77;0.77;;;;;12.80;95692.00;;;;5072656;28;20210;-54
2023/07/27 05:55:16;;;;;;;0.80;0.80;;;;;12.90;95698.00;;;;5072091;28;20219;-54
2023/07/27 05:57:44;;;;;;;0.70;0.70;;;;;12.80;95695.00;;;;5072688;28;20686;-54
2023/07/27 06:00:12;;;;;;;0.80;0.80;;;;;12.70;95697.00;;;;5071298;28;20199;-54
2023/07/27 06:02:41;;;;;;;0.80;0.80;;;;;13.10;95701.00;;;;5072525;28;20199;-54
2023/07/27 06:05:11;;;;;;;1.10;1.10;;;;;12.90;95698.00;;;;5072861;28;20315;-55
2023/07/27 06:07:38;;;;;;;0.80;0.80;;;;;12.90;95688.00;;;;5071969;28;20272;-54
2023/07/27 06:10:06;;;;;;;1.23;1.13;;;;;13.00;95695.00;;;;5072794;28;20749;-55
2023/07/27 06:12:33;;;;;;;1.00;1.00;;;;;13.10;95697.00;;;;5072226;28;20203;-55
2023/07/27 06:15:01;;;;;;;0.73;0.73;;;;;13.00;95702.00;;;;5072607;28;20224;-55
2023/07/27 06:17:29;;;;;;;0.90;0.90;;;;;13.00;95703.00;;;;5072273;28;20198;-54
2023/07/27 06:19:57;;;;;;;0.83;0.83;;;;;13.00;95691.00;;;;5071200;28;20207;-55
2023/07/27 06:22:25;;;;;;;0.67;0.67;;;;;13.00;95693.00;;;;5072187;28;20219;-55
2023/07/27 06:24:52;;;;;;;0.80;0.80;;;;;13.10;95692.00;;;;5072051;28;20219;-55
2023/07/27 06:27:20;;;;;;;0.57;0.57;;;;;13.30;95685.00;;;;5072098;28;20243;-55
2023/07/27 06:29:47;;;;;;;1.20;1.10;;;;;13.40;95684.00;;;;5072098;28;20195;-55
2023/07/27 06:32:15;;;;;;;0.63;0.63;;;;;13.60;95687.00;;;;5072102;28;20655;-55
2023/07/27 06:34:42;;;;;;;0.70;0.70;;;;;13.60;95690.00;;;;5071893;28;20712;-55
2023/07/27 06:37:11;;;;;;;1.27;1.17;;;;;13.90;95686.00;;;;5072211;28;20233;-55
2023/07/27 06:39:39;;;;;;;0.70;0.70;;;;;13.80;95676.00;;;;5071887;28;20218;-55
2023/07/27 06:42:07;;;;;;;1.30;1.30;;;;;13.70;95675.00;;;;5071822;28;20195;-55
2023/07/27 06:44:34;;;;;;;0.70;0.70;;;;;14.00;95683.00;;;;5071738;28;20273;-56
2023/07/27 06:47:02;;;;;;;0.60;0.60;;;;;14.20;95668.00;;;;5071737;28;20215;-55
2023/07/27 06:49:29;;;;;;;0.73;0.73;;;;;14.10;95670.00;;;;5071731;28;20665;-55
2023/07/27 06:51:57;;;;;;;0.50;0.50;;;;;14.10;95654.00;;;;5071702;28;20192;-55
2023/07/27 06:54:26;;;;;;;1.33;1.33;;;;;14.10;95674.00;;;;5070414;28;20205;-55
2023/07/27 06:56:53;;;;;;;0.60;0.60;;;;;14.30;95675.00;;;;5071974;28;20745;-55
2023/07/27 06:59:22;;;;;;;0.80;0.80;;;;;14.20;95677.00;;;;5071171;28;20278;-55
2023/07/27 07:01:49;;;;;;;1.23;1.23;;;;;14.40;95673.00;;;;5072186;28;20682;-56
2023/07/27 07:04:17;;;;;;;1.10;1.10;;;;;14.40;95672.00;;;;5071391;28;20195;-56
2023/07/27 07:06:45;;;;;;;0.60;0.60;;;;;14.60;95671.00;;;;5071452;28;20225;-55
2023/07/27 07:09:12;;;;;;;0.90;0.90;;;;;14.60;95668.00;;;;5071405;28;20696;-55
2023/07/27 07:11:41;;;;;;;0.60;0.60;;;;;14.30;95665.00;;;;5071256;28;20203;-55
2023/07/27 07:14:09;;;;;;;0.60;0.60;;;;;14.40;95658.00;;;;5071206;28;20199;-55
2023/07/27 07:16:36;;;;;;;0.83;0.83;;;;;14.50;95668.00;;;;5071573;28;20572;-55
2023/07/27 07:19:04;;;;;;;0.60;0.60;;;;;14.40;95656.00;;;;5071307;28;20203;-57
2023/07/27 07:21:31;;;;;;;1.03;1.03;;;;;14.50;95657.00;;;;5071330;28;20899;-55
2023/07/27 07:23:59;;;;;;;0.50;0.50;;;;;14.30;95670.00;;;;5071365;28;20711;-55
2023/07/27 07:26:26;;;;;;;0.63;0.63;;;;;14.30;95660.00;;;;5071020;28;20223;-55
2023/07/27 07:28:55;;;;;;;0.83;0.83;;;;;14.40;95655.00;;;;5071338;28;20235;-55
2023/07/27 07:31:23;;;;;;;0.60;0.60;;;;;14.60;95651.00;;;;5071051;28;20199;-55
2023/07/27 07:33:51;;;;;;;1.90;1.10;;;;;14.70;95654.00;;;;5071413;28;20270;-55
2023/07/27 07:36:18;;;;;;;0.70;0.70;;;;;14.70;95661.00;;;;5070559;28;20215;-55
2023/07/27 07:38:46;;;;;;;0.63;0.63;;;;;14.80;95647.00;;;;5071380;28;20199;-55
2023/07/27 07:41:13;;;;;;;1.13;1.03;;;;;14.80;95643.00;;;;5070600;28;20198;-55
2023/07/27 07:43:41;;;;;;;1.27;0.90;;;;;14.90;95642.00;;;;5070823;28;20199;-55
2023/07/27 07:46:12;;;;;;;0.90;0.90;;;;;15.00;95642.00;;;;5070804;28;20229;-55
2023/07/27 07:48:40;;;;;;;0.77;0.77;;;;;15.00;95647.00;;;;5070779;28;20306;-55
2023/07/27 07:51:10;;;;;;;0.77;0.77;;;;;15.10;95639.00;;;;5070885;28;20278;-55
2023/07/27 07:53:38;;;;;;;0.70;0.70;;;;;15.10;95625.00;;;;5070802;28;20588;-55
2023/07/27 07:56:13;;;;;;;1.37;1.10;;;;;15.40;95620.00;;;;5070688;28;20666;-55
2023/07/27 07:58:40;;;;;;;0.70;0.70;;;;;15.30;95618.00;;;;5066698;28;20187;-55
2023/07/27 08:01:08;;;;;;;0.67;0.67;;;;;15.30;95605.00;;;;5069473;28;20195;-55
2023/07/27 08:03:37;;;;;;;0.70;0.70;;;;;15.50;95605.00;;;;5070755;28;20245;-55
2023/07/27 08:06:07;;;;;;;0.57;0.57;;;;;15.60;95605.00;;;;5073973;28;20219;-55
2023/07/27 08:08:35;;;;;;;0.83;0.83;;;;;15.60;95603.00;;;;5074622;28;20215;-55
2023/07/27 08:11:03;;;;;;;0.80;0.80;;;;;15.90;95608.00;;;;5074729;28;20192;-55
2023/07/27 08:13:30;;;;;;;0.60;0.60;;;;;15.80;95603.00;;;;5074712;28;20195;-55
2023/07/27 08:15:58;;;;;;;0.47;0.47;;;;;15.80;95601.00;;;;5074674;28;20211;-56
2023/07/27 08:18:28;;;;;;;0.90;0.90;;;;;15.80;95606.00;;;;5074647;28;20198;-55
2023/07/27 08:21:02;;;;;;;1.03;1.03;;;;;15.80;95620.00;;;;5074544;28;20206;-55
2023/07/27 08:23:30;;;;;;;1.80;0.80;;;;;15.60;95616.00;;;;5075153;28;20560;-56
2023/07/27 08:25:57;;;;;;;0.60;0.60;;;;;15.60;95606.00;;;;5074091;28;20255;-55
2023/07/27 08:28:25;;;;;;;0.70;0.70;;;;;15.60;95606.00;;;;5074415;28;20592;-55
2023/07/27 08:30:53;;;;;;;0.60;0.60;;;;;15.60;95596.00;;;;5074308;28;20345;-55
2023/07/27 08:33:21;;;;;;;0.77;0.77;;;;;15.60;95592.00;;;;5074975;28;20648;-55
2023/07/27 08:35:49;;;;;;;0.80;0.80;;;;;15.60;95593.00;;;;5074185;28;20641;-55
2023/07/27 08:38:17;;;;;;;0.60;0.60;;;;;15.70;95588.00;;;;5074233;28;20195;-55
2023/07/27 08:40:54;;;;;;;0.70;0.70;;;;;15.80;95572.00;;;;5074016;28;20212;-56
2023/07/27 08:43:22;;;;;;;0.77;0.77;;;;;16.00;95562.00;;;;5073860;28;20183;-55
2023/07/27 08:45:50;;;;;;;0.77;0.77;;;;;16.10;95565.00;;;;5073635;28;20226;-55
2023/07/27 08:48:18;;;;;;;0.83;0.83;;;;;16.30;95561.00;;;;5074287;28;20231;-55
2023/07/27 08:50:47;;;;;;;0.73;0.73;;;;;16.50;95556.00;;;;5073670;28;20301;-55
2023/07/27 08:53:15;;;;;;;0.67;0.67;;;;;16.40;95558.00;;;;5074316;28;20191;-55
2023/07/27 08:55:44;;;;;;;0.50;0.50;;;;;16.50;95553.00;;;;5073315;28;20246;-55
2023/07/27 08:58:12;;;;;;;0.70;0.70;;;;;16.60;95564.00;;;;5074370;28;20194;-55
2023/07/27 09:00:40;;;;;;;1.13;1.13;;;;;16.70;95548.00;;;;5073604;28;20206;-55
2023/07/27 09:03:08;;;;;;;1.20;0.87;;;;;16.60;95553.00;;;;5074460;28;20199;-55
2023/07/27 09:05:39;;;;;;;0.60;0.60;;;;;16.50;95557.00;;;;5069240;28;20219;-55
2023/07/27 09:08:08;;;;;;;0.60;0.60;;;;;16.60;95560.00;;;;5073590;28;20215;-55
2023/07/27 09:10:36;;;;;;;0.50;0.50;;;;;16.70;95555.00;;;;5073580;28;20196;-55
2023/07/27 09:13:05;;;;;;;0.77;0.77;;;;;16.90;95564.00;;;;5073707;28;20199;-55
2023/07/27 09:15:35;;;;;;;1.03;1.00;;;;;16.80;95565.00;;;;5073265;28;20577;-55
2023/07/27 09:18:09;;;;;;;0.73;0.73;;;;;16.90;95564.00;;;;5073221;28;20187;-55
2023/07/27 09:20:36;;;;;;;0.90;0.90;;;;;16.70;95574.00;;;;5073588;28;20261;-55
2023/07/27 09:23:04;;;;;;;0.60;0.60;;;;;16.70;95576.00;;;;5073394;28;20200;-55
2023/07/27 09:25:31;;;;;;;1.10;1.00;;;;;16.80;95592.00;;;;5073289;28;20245;-55
2023/07/27 09:27:59;;;;;;;0.60;0.60;;;;;16.70;95585.00;;;;5073245;28;20226;-55
2023/07/27 09:30:28;;;;;;;0.90;0.90;;;;;16.50;95580.00;;;;5073715;28;20253;-55
2023/07/27 09:32:56;;;;;;;0.60;0.60;;;;;16.40;95578.00;;;;5071283;28;20316;-55
2023/07/27 09:35:23;;;;;;;0.70;0.70;;;;;16.30;95581.00;;;;5073104;28;20268;-55
2023/07/27 09:37:52;;;;;;;0.80;0.80;;;;;16.50;95583.00;;;;5073092;28;20210;-55
2023/07/27 09:40:21;;;;;;;0.73;0.73;;;;;16.40;95583.00;;;;5073451;28;20195;-55
2023/07/27 09:42:49;;;;;;;0.77;0.77;;;;;16.60;95582.00;;;;5072758;28;20221;-56
2023/07/27 09:45:17;;;;;;;0.60;0.60;;;;;16.60;95585.00;;;;5073337;28;20239;-55
2023/07/27 09:47:46;;;;;;;0.70;0.70;;;;;16.60;95572.00;;;;5072655;28;21330;-55
2023/07/27 09:50:14;;;;;;;0.77;0.77;;;;;16.50;95575.00;;;;5073357;28;20697;-55
2023/07/27 09:52:42;;;;;;;0.70;0.70;;;;;16.60;95566.00;;;;5072975;28;20253;-55
2023/07/27 09:55:10;;;;;;;1.03;0.90;;;;;16.60;95573.00;;;;5072696;28;20674;-56
2023/07/27 09:57:38;;;;;;;0.57;0.57;;;;;16.50;95568.00;;;;5072793;28;20191;-56
2023/07/27 10:00:06;;;;;;;0.63;0.63;;;;;16.60;95571.00;;;;5054839;28;20199;-55
2023/07/27 10:02:35;;;;;;;0.70;0.70;;;;;16.70;95561.00;;;;5072702;28;20195;-55
2023/07/27 10:05:05;;;;;;;0.50;0.50;;;;;16.70;95565.00;;;;5072635;28;20246;-55
2023/07/27 10:07:34;;;;;;;0.40;0.40;;;;;16.80;95564.00;;;;5072628;28;20214;-55
2023/07/27 10:10:28;;;;;;;1.50;1.40;;;;;16.80;95561.00;;;;5071632;28;20203;-55
2023/07/27 10:12:58;;;;;;;0.63;0.63;;;;;16.90;95565.00;;;;5072025;28;20651;-55
2023/07/27 10:15:27;;;;;;;0.97;0.97;;;;;16.90;95565.00;;;;5072381;28;20227;-56
2023/07/27 10:17:58;;;;;;;1.10;1.10;;;;;17.00;95568.00;;;;5067785;28;20195;-55
2023/07/27 10:20:30;;;;;;;0.60;0.60;;;;;17.30;95555.00;;;;5068158;28;20198;-55
2023/07/27 10:23:10;;;;;;;0.80;0.80;;;;;17.40;95549.00;;;;5072405;28;20192;-55
2023/07/27 10:26:03;;;;;;;0.60;0.60;;;;;17.70;95551.00;;;;5072240;28;20238;-55
2023/07/27 10:28:32;;;;;;;0.43;0.43;;;;;17.60;95540.00;;;;5070670;28;20220;-55
2023/07/27 10:34:21;;;;;;;0.50;0.50;;;;;17.80;95556.00;;;;5045440;28;20223;-55
2023/07/27 10:36:57;;;;;;;0.70;0.70;;;;;17.70;95543.00;;;;5072101;28;20199;-55
2023/07/27 10:39:30;;;;;;;0.77;0.77;;;;;17.90;95525.00;;;;5072113;28;20194;-55
2023/07/27 10:42:03;;;;;;;0.60;0.60;;;;;18.20;95522.00;;;;5071952;28;20219;-55
2023/07/27 10:44:40;;;;;;;0.70;0.70;;;;;18.30;95526.00;;;;5071784;28;20228;-55
2023/07/27 10:47:09;;;;;;;0.80;0.80;;;;;18.30;95531.00;;;;5072254;28;20183;-55
2023/07/27 10:49:40;;;;;;;0.70;0.70;;;;;18.50;95518.00;;;;5071356;28;20282;-55
2023/07/27 10:52:10;;;;;;;0.47;0.47;;;;;18.30;95512.00;;;;5071856;28;20266;-56
2023/07/27 10:54:42;;;;;;;0.50;0.50;;;;;18.50;95509.00;;;;5053546;28;20322;-55
2023/07/27 10:57:11;;;;;;;0.70;0.70;;;;;18.20;95503.00;;;;5067375;28;20209;-56
2023/07/27 10:59:40;;;;;;;0.60;0.60;;;;;18.10;95521.00;;;;5070147;28;20245;-55
2023/07/27 11:02:16;;;;;;;0.60;0.60;;;;;18.40;95507.00;;;;5071562;28;20206;-55
2023/07/27 11:04:43;;;;;;;0.50;0.50;;;;;18.50;95505.00;;;;5071447;28;20305;-55
2023/07/27 11:07:14;;;;;;;0.50;0.50;;;;;18.50;95513.00;;;;5071653;28;20661;-56
2023/07/27 11:09:46;;;;;;;0.60;0.60;;;;;18.50;95509.00;;;;5071391;28;20221;-55
2023/07/27 11:12:13;;;;;;;0.53;0.53;;;;;18.40;95505.00;;;;5071418;28;20697;-55
2023/07/27 11:14:41;;;;;;;0.70;0.70;;;;;18.50;95508.00;;;;5071134;28;20226;-59
2023/07/27 11:17:09;;;;;;;0.70;0.70;;;;;18.70;95508.00;;;;5071315;28;20231;-55
2023/07/27 11:19:36;;;;;;;0.70;0.70;;;;;18.30;95499.00;;;;5071260;28;20211;-55
2023/07/27 11:22:04;;;;;;;0.63;0.63;;;;;18.70;95486.00;;;;5053258;28;20199;-55
2023/07/27 11:24:34;;;;;;;0.80;0.80;;;;;18.70;95490.00;;;;5071085;28;20234;-56
2023/07/27 11:27:01;;;;;;;0.53;0.53;;;;;18.80;95479.00;;;;5071252;28;20204;-55
2023/07/27 11:29:32;;;;;;;0.73;0.73;;;;;18.80;95470.00;;;;5070893;28;20522;-55
2023/07/27 11:32:00;;;;;;;2.57;0.93;;;;;18.90;95489.00;;;;5071031;28;20249;-55
2023/07/27 11:34:29;;;;;;;1.47;1.37;;;;;18.60;95487.00;;;;5071077;28;20230;-55
2023/07/27 11:36:59;;;;;;;1.53;1.27;;;;;18.60;95485.00;;;;5071364;28;20730;-56
2023/07/27 11:39:27;;;;;;;0.50;0.50;;;;;18.70;95475.00;;;;5070168;28;20191;-55
2023/07/27 11:41:56;;;;;;;0.67;0.67;;;;;19.00;95473.00;;;;5052911;28;20681;-55
2023/07/27 11:44:24;;;;;;;0.50;0.50;;;;;19.10;95485.00;;;;5071142;28;20287;-55
2023/07/27 11:46:55;;;;;;;0.47;0.47;;;;;19.00;95471.00;;;;5069893;28;20231;-55
2023/07/27 11:49:24;;;;;;;0.60;0.60;;;;;18.90;95475.00;;;;5070969;28;20208;-55
2023/07/27 11:51:51;;;;;;;0.77;0.77;;;;;18.80;95475.00;;;;5071036;28;20195;-55
2023/07/27 11:54:23;;;;;;;0.50;0.50;;;;;18.70;95472.00;;;;5070667;28;20188;-55
2023/07/27 11:56:52;;;;;;;0.53;0.53;;;;;18.90;95472.00;;;;5069417;28;20194;-55
2023/07/27 11:59:21;;;;;;;0.60;0.60;;;;;18.90;95469.00;;;;5069837;28;20202;-56
2023/07/27 12:01:50;;;;;;;1.17;0.97;;;;;18.90;95462.00;;;;5070877;28;20282;-60
2023/07/27 12:04:18;;;;;;;1.33;0.97;;;;;19.00;95466.00;;;;5070662;28;20194;-55
2023/07/27 12:06:46;;;;;;;0.70;0.70;;;;;18.80;95477.00;;;;5070708;28;20198;-55
2023/07/27 12:09:14;;;;;;;0.40;0.40;;;;;18.80;95480.00;;;;5070675;28;20219;-55
2023/07/27 12:11:42;;;;;;;0.70;0.70;;;;;18.30;95474.00;;;;5070799;28;20282;-54
2023/07/27 12:14:10;;;;;;;0.60;0.60;;;;;18.20;95480.00;;;;5070717;28;20199;-54
2023/07/27 12:16:40;;;;;;;0.70;0.70;;;;;18.00;95477.00;;;;5071033;28;20195;-54
2023/07/27 12:19:08;;;;;;;0.60;0.60;;;;;18.20;95473.00;;;;5071004;28;20196;-55
2023/07/27 12:21:36;;;;;;;0.60;0.60;;;;;18.10;95486.00;;;;5071167;28;20268;-55
2023/07/27 12:24:07;;;;;;;0.70;0.70;;;;;18.00;95475.00;;;;5070288;28;20260;-56
2023/07/27 12:26:35;;;;;;;0.63;0.63;;;;;18.10;95477.00;;;;5071103;28;20195;-55
2023/07/27 12:29:03;;;;;;;0.50;0.50;;;;;18.10;95460.00;;;;5070164;28;20226;-55